Consulta los datos en tiempo real de la estación meteorológica de Calldetenes
| Hora UTC | 20:40 |
|---|---|
| Temperatura | 11.7 ºC |
| Suelo 15 cm | 11.4 ºC |
| Humedad | 90.5 % |
| Presión | 1014.6 hPa |
| Pluja | 0.0 mm |
| Velocidad viento | 5.2 km/h |
| Dirección viento | E |
| Radiación solar | 0.1 W/m² |
| Temperatura (ºC) | Humedad (%) | Presión (hPa) | Velocidad viento (km/h) | Precipitación (mm) | Radiación solar (W/m²) | ||||||||||||||
|---|---|---|---|---|---|---|---|---|---|---|---|---|---|---|---|---|---|---|---|
| Hora UTC | Aire | Suelo 15 cm | Humedad | Presión | Vel. | Dir. | Vel. Max | Dir. | Intent. máx 5 min. | Rad. Sol. | |||||||||
| 00:05 | 11.2 | 11.3 | 82.7 | 1014.7 | 2.8 | NNW | 2.8 | N | 0.0 | 0.1 | |||||||||
| 00:10 | 11.2 | 11.2 | 83.7 | 1014.7 | 2.9 | NNW | 7.8 | N | 0.0 | 0.1 | |||||||||
| 00:15 | 11.1 | 11.1 | 84.2 | 1014.7 | 3.6 | NW | 5.6 | NNW | 0.0 | 0.1 | |||||||||
| 00:20 | 10.9 | 10.9 | 84.7 | 1014.7 | 3.7 | NNW | 5.6 | NW | 0.0 | 0.1 | |||||||||
| 00:25 | 10.8 | 10.7 | 85.5 | 1014.6 | 2.9 | NNW | 6.0 | NNW | 0.0 | 0.1 | |||||||||
| 00:30 | 10.7 | 10.6 | 85.6 | 1014.6 | 1.8 | N | 4.2 | N | 0.0 | 0.1 | |||||||||
| 00:35 | 10.6 | 10.4 | 86.5 | 1014.6 | 2.6 | NE | 3.9 | ENE | 0.0 | 0.1 | |||||||||
| 00:40 | 10.6 | 10.3 | 88.5 | 1014.6 | 4.3 | ESE | 6.4 | ESE | 0.0 | 0.1 | |||||||||
| 00:45 | 10.3 | 10.1 | 88.2 | 1014.5 | 4.1 | ESE | 5.6 | ESE | 0.0 | 0.1 | |||||||||
| 00:50 | 9.9 | 9.8 | 89.5 | 1014.5 | 2.8 | ESE | 4.2 | ESE | 0.0 | 0.1 | |||||||||
| 00:55 | 9.5 | 9.4 | 90.7 | 1014.5 | 2.6 | E | 3.5 | E | 0.0 | 0.1 | |||||||||
| 01:00 | 9.3 | 9.1 | 92.8 | 1014.5 | 4.2 | ESE | 5.6 | ESE | 0.0 | 0.2 | |||||||||
| 01:05 | 9.6 | 9.0 | 93.6 | 1014.4 | 3.8 | ESE | 5.3 | ESE | 0.0 | 0.1 | |||||||||
| 01:10 | 9.3 | 9.0 | 92.3 | 1014.4 | 5.1 | ESE | 6.7 | ESE | 0.0 | 0.1 | |||||||||
| 01:15 | 9.0 | 8.8 | 92.4 | 1014.3 | 4.6 | ESE | 7.1 | ESE | 0.0 | 0.1 | |||||||||
| 01:20 | 8.5 | 8.5 | 93.4 | 1014.3 | 1.9 | ESE | 3.2 | ESE | 0.0 | 0.1 | |||||||||
| 01:25 | 8.1 | 8.2 | 94.4 | 1014.3 | 0.2 | ESE | 2.1 | ESE | 0.0 | 0.1 | |||||||||
| 01:30 | 7.9 | 7.9 | 95.4 | 1014.3 | 0.2 | SE | 1.8 | SE | 0.0 | 0.2 | |||||||||
| 01:35 | 7.7 | 7.7 | 96.2 | 1014.2 | 2.6 | ESE | 6.0 | ESE | 0.0 | 0.1 | |||||||||
| 01:40 | 7.8 | 7.7 | 96.9 | 1014.2 | 4.1 | ESE | 6.0 | ESE | 0.0 | 0.1 | |||||||||
| 01:45 | 7.6 | 7.7 | 96.1 | 1014.2 | 4.5 | ESE | 8.5 | ESE | 0.0 | 0.1 | |||||||||
| 01:50 | 7.9 | 7.6 | 97.3 | 1014.2 | 6.4 | ESE | 8.1 | ESE | 0.0 | 0.1 | |||||||||
| 01:55 | 7.6 | 7.6 | 95.1 | 1014.2 | 5.4 | E | 6.4 | E | 0.0 | 0.1 | |||||||||
| 02:00 | 7.4 | 7.4 | 96.8 | 1014.2 | 5.5 | E | 7.1 | ESE | 0.0 | 0.1 | |||||||||
| 02:05 | 7.6 | 7.4 | 97.5 | 1014.3 | 5.2 | E | 7.8 | ESE | 0.0 | 0.1 | |||||||||
| 02:10 | 7.3 | 7.4 | 96.6 | 1014.3 | 4.8 | E | 7.4 | ESE | 0.0 | 0.1 | |||||||||
| 02:15 | 7.9 | 7.5 | 97.4 | 1014.2 | 7.2 | ESE | 9.2 | ESE | 0.0 | 0.1 | |||||||||
| 02:20 | 7.6 | 7.7 | 95.2 | 1014.2 | 6.0 | ESE | 8.5 | ESE | 0.0 | 0.1 | |||||||||
| 02:25 | 7.3 | 7.6 | 95.4 | 1014.1 | 5.0 | ESE | 7.1 | E | 0.0 | 0.1 | |||||||||
| 02:30 | 7.5 | 7.4 | 96.9 | 1014.1 | 5.6 | ESE | 7.8 | ESE | 0.0 | 0.1 | |||||||||
| 02:35 | 7.3 | 7.2 | 95.6 | 1014.1 | 4.6 | ESE | 6.4 | ESE | 0.0 | 0.1 | |||||||||
| 02:40 | 7.5 | 7.1 | 96.8 | 1014.1 | 5.8 | ESE | 7.1 | ESE | 0.0 | 0.1 | |||||||||
| 02:45 | 7.5 | 7.2 | 96.4 | 1014.1 | 4.2 | SE | 7.1 | ESE | 0.0 | 0.1 | |||||||||
| 02:50 | 7.3 | 7.2 | 95.2 | 1014.1 | 1.7 | SE | 3.9 | SE | 0.0 | 0.1 | |||||||||
| 02:55 | 7.0 | 7.0 | 95.8 | 1014.1 | 0.0 | NNE | 0.0 | SSW | 0.0 | 0.1 | |||||||||
| 03:00 | 6.8 | 6.7 | 96.2 | 1014.1 | 1.8 | ESE | 4.9 | ESE | 0.0 | 0.1 | |||||||||
| 03:05 | 6.9 | 6.6 | 97.2 | 1014.1 | 2.5 | ESE | 4.9 | ESE | 0.0 | 0.1 | |||||||||
| 03:10 | 6.6 | 6.6 | 96.6 | 1014.1 | 1.5 | ESE | 3.2 | ESE | 0.0 | 0.1 | |||||||||
| 03:15 | 6.6 | 6.4 | 97.0 | 1014.1 | 0.5 | SE | 2.1 | ESE | 0.0 | 0.1 | |||||||||
| 03:20 | 6.6 | 6.4 | 97.4 | 1014.1 | 0.5 | ESE | 2.5 | SE | 0.0 | 0.1 | |||||||||
| 03:25 | 6.6 | 6.4 | 97.6 | 1014.1 | 0.1 | SSE | 1.4 | SSE | 0.0 | 0.1 | |||||||||
| 03:30 | 6.5 | 6.3 | 97.5 | 1014.1 | 0.3 | SSE | 1.8 | SSE | 0.0 | 0.1 | |||||||||
| 03:35 | 6.4 | 6.1 | 97.7 | 1014.1 | 0.5 | SSE | 1.8 | SSE | 0.0 | 0.1 | |||||||||
| 03:40 | 6.4 | 6.0 | 98.1 | 1014.1 | 0.8 | SE | 3.2 | ESE | 0.0 | 0.1 | |||||||||
| 03:45 | 6.4 | 6.0 | 98.2 | 1014.1 | 3.3 | ESE | 4.9 | ESE | 0.0 | 0.2 | |||||||||
| 03:50 | 6.3 | 6.0 | 98.1 | 1014.1 | 4.4 | ESE | 5.6 | ESE | 0.0 | 0.1 | |||||||||
| 03:55 | 6.6 | 6.1 | 99.1 | 1014.1 | 4.1 | ESE | 5.3 | ESE | 0.0 | 0.1 | |||||||||
| 04:00 | 6.5 | 6.1 | 97.8 | 1014.1 | 3.3 | SE | 4.9 | ESE | 0.0 | 0.1 | |||||||||
| 04:05 | 6.2 | 6.0 | 97.5 | 1014.1 | 0.7 | S | 2.1 | SE | 0.0 | 0.1 | |||||||||
| 04:10 | 6.1 | 5.8 | 97.6 | 1014.1 | 0.0 | E | 1.4 | E | 0.0 | 0.1 | |||||||||
| 04:15 | 5.9 | 5.7 | 97.7 | 1014.1 | 0.9 | ESE | 2.8 | SE | 0.0 | 0.2 | |||||||||
| 04:20 | 5.9 | 5.6 | 98.0 | 1014.1 | 0.4 | ESE | 1.8 | ESE | 0.0 | 0.2 | |||||||||
| 04:25 | 5.7 | 5.5 | 97.7 | 1014.1 | 2.2 | SW | 4.9 | SSW | 0.0 | 0.5 | |||||||||
| 04:30 | 5.9 | 5.5 | 98.6 | 1014.1 | 2.0 | SW | 4.2 | WSW | 0.0 | 1.0 | |||||||||
| 04:35 | 5.8 | 5.5 | 98.2 | 1014.1 | 1.5 | SSW | 3.2 | SSW | 0.0 | 1.9 | |||||||||
| 04:40 | 5.7 | 5.4 | 98.2 | 1014.1 | 1.5 | SSW | 3.5 | SSW | 0.0 | 3.0 | |||||||||
| 04:45 | 5.7 | 5.3 | 98.6 | 1014.1 | 0.2 | SSE | 2.1 | SSE | 0.0 | 4.5 | |||||||||
| 04:50 | 5.8 | 5.4 | 98.9 | 1014.1 | 1.6 | SSE | 3.2 | S | 0.0 | 6.3 | |||||||||
| 04:55 | 5.7 | 5.4 | 98.8 | 1014.1 | 1.3 | ESE | 2.8 | ESE | 0.0 | 8.3 | |||||||||
| 05:00 | 6.0 | 5.4 | 99.5 | 1014.1 | 2.1 | ESE | 3.9 | ESE | 0.0 | 10.4 | |||||||||
| 05:05 | 5.6 | 5.4 | 98.2 | 1014.2 | 1.4 | ESE | 2.5 | ESE | 0.0 | 12.4 | |||||||||
| 05:10 | 5.7 | 5.3 | 99.0 | 1014.2 | 1.7 | SSE | 3.5 | SSE | 0.0 | 14.5 | |||||||||
| 05:15 | 5.6 | 5.3 | 98.4 | 1014.3 | 0.0 | SSE | 1.1 | SSE | 0.0 | 16.5 | |||||||||
| 05:20 | 5.3 | 5.2 | 98.5 | 1014.3 | 0.1 | NE | 1.1 | NE | 0.0 | 18.3 | |||||||||
| 05:25 | 5.5 | 5.2 | 99.3 | 1014.2 | 1.4 | SSE | 2.5 | SSE | 0.0 | 20.1 | |||||||||
| 05:30 | 6.0 | 5.5 | 100.0 | 1014.2 | 0.4 | SE | 1.8 | SE | 0.0 | 22.1 | |||||||||
| 05:35 | 6.1 | 5.7 | 99.9 | 1014.3 | 0.0 | NNE | 0.0 | ESE | 0.0 | 23.8 | |||||||||
| 05:40 | 6.3 | 5.9 | 99.9 | 1014.3 | 0.0 | NNE | 0.0 | SE | 0.0 | 25.8 | |||||||||
| 05:45 | 6.5 | 6.1 | 100.0 | 1014.4 | 1.3 | ESE | 2.8 | ESE | 0.0 | 27.4 | |||||||||
| 05:50 | 6.9 | 6.4 | 100.0 | 1014.4 | 2.0 | SE | 3.2 | SE | 0.0 | 29.6 | |||||||||
| 05:55 | 7.1 | 6.7 | 100.0 | 1014.5 | 2.0 | SSE | 4.2 | S | 0.0 | 32.0 | |||||||||
| 06:00 | 7.2 | 6.9 | 99.9 | 1014.5 | 1.6 | S | 4.2 | SSE | 0.0 | 34.5 | |||||||||
| 06:05 | 7.4 | 7.0 | 99.8 | 1014.6 | 2.2 | S | 3.9 | S | 0.0 | 36.3 | |||||||||
| 06:10 | 7.7 | 7.3 | 98.8 | 1014.6 | 2.4 | SW | 3.9 | SSW | 0.0 | 37.8 | |||||||||
| 06:15 | 7.7 | 7.5 | 97.8 | 1014.6 | 0.8 | W | 3.2 | WNW | 0.0 | 38.9 | |||||||||
| 06:20 | 7.7 | 7.6 | 97.4 | 1014.6 | 0.5 | NW | 2.1 | NW | 0.0 | 40.7 | |||||||||
| 06:25 | 7.9 | 7.7 | 97.2 | 1014.6 | 1.7 | NW | 3.2 | WNW | 0.0 | 194.5 | |||||||||
| 06:30 | 8.0 | 7.8 | 97.0 | 1014.6 | 1.3 | W | 3.2 | WNW | 0.0 | 235.2 | |||||||||
| 06:35 | 8.2 | 7.9 | 97.1 | 1014.6 | 1.3 | N | 3.5 | NNE | 0.0 | 248.5 | |||||||||
| 06:40 | 8.6 | 8.1 | 96.5 | 1014.6 | 2.0 | NNE | 4.9 | NNE | 0.0 | 262.5 | |||||||||
| 06:45 | 8.8 | 8.3 | 95.5 | 1014.5 | 2.3 | NE | 3.5 | NNE | 0.0 | 275.6 | |||||||||
| 06:50 | 9.2 | 8.5 | 93.1 | 1014.5 | 3.1 | NNE | 4.9 | NNE | 0.0 | 289.6 | |||||||||
| 06:55 | 9.5 | 8.7 | 91.5 | 1014.6 | 3.1 | NNW | 5.3 | N | 0.0 | 306.7 | |||||||||
| 07:00 | 9.6 | 8.9 | 89.9 | 1014.6 | 2.8 | NNW | 4.6 | WNW | 0.0 | 322.0 | |||||||||
| 07:05 | 9.7 | 8.9 | 90.0 | 1014.6 | 2.4 | N | 4.2 | NNE | 0.0 | 337.1 | |||||||||
| 07:10 | 9.7 | 9.0 | 89.5 | 1014.6 | 0.9 | WNW | 3.9 | WNW | 0.0 | 354.1 | |||||||||
| 07:15 | 9.9 | 9.1 | 90.0 | 1014.7 | 2.7 | N | 5.6 | N | 0.0 | 371.7 | |||||||||
| 07:20 | 10.1 | 9.2 | 89.4 | 1014.7 | 2.8 | NE | 4.6 | NNE | 0.0 | 387.1 | |||||||||
| 07:25 | 10.3 | 9.3 | 89.1 | 1014.8 | 2.6 | NNW | 6.4 | WNW | 0.0 | 400.9 | |||||||||
| 07:30 | 10.4 | 9.5 | 87.5 | 1014.8 | 1.8 | WNW | 5.6 | WNW | 0.0 | 417.4 | |||||||||
| 07:35 | 10.5 | 9.5 | 86.9 | 1014.9 | 1.0 | W | 3.9 | W | 0.0 | 432.9 | |||||||||
| 07:40 | 10.6 | 9.6 | 86.1 | 1014.9 | 0.9 | WSW | 2.8 | WSW | 0.0 | 448.0 | |||||||||
| 07:45 | 10.7 | 9.7 | 85.6 | 1015.0 | 0.5 | NNW | 2.8 | NW | 0.0 | 471.0 | |||||||||
| 07:50 | 10.9 | 9.9 | 85.0 | 1015.0 | 0.9 | WNW | 4.6 | NNW | 0.0 | 490.0 | |||||||||
| 07:55 | 11.3 | 10.1 | 85.5 | 1014.8 | 2.9 | N | 8.1 | N | 0.0 | 494.2 | |||||||||
| 08:00 | 11.6 | 10.4 | 84.6 | 1014.8 | 2.4 | NNW | 4.9 | NW | 0.0 | 502.3 | |||||||||
| 08:05 | 11.7 | 10.7 | 83.5 | 1014.8 | 2.2 | N | 6.4 | N | 0.0 | 545.2 | |||||||||
| 08:10 | 12.1 | 10.9 | 83.0 | 1014.8 | 2.6 | N | 6.0 | N | 0.0 | 524.2 | |||||||||
| 08:15 | 12.4 | 11.1 | 80.5 | 1014.7 | 3.7 | NW | 8.5 | NW | 0.0 | 569.8 | |||||||||
| 08:20 | 12.5 | 11.4 | 78.7 | 1014.7 | 4.6 | NNW | 8.1 | WNW | 0.0 | 567.5 | |||||||||
| 08:25 | 12.8 | 11.5 | 78.8 | 1014.6 | 3.4 | NE | 6.4 | NNE | 0.0 | 576.0 | |||||||||
| 08:30 | 13.0 | 11.8 | 78.3 | 1014.6 | 3.8 | NNE | 6.4 | NNE | 0.0 | 580.6 | |||||||||
| 08:35 | 13.1 | 12.0 | 77.8 | 1014.5 | 2.2 | NNW | 6.4 | NNE | 0.0 | 619.7 | |||||||||
| 08:40 | 13.3 | 12.1 | 76.9 | 1014.5 | 2.1 | ENE | 6.0 | NNE | 0.0 | 611.8 | |||||||||
| 08:45 | 13.6 | 12.3 | 77.2 | 1014.4 | 1.8 | NE | 5.3 | NE | 0.0 | 615.1 | |||||||||
| 08:50 | 13.9 | 12.5 | 77.2 | 1014.4 | 4.3 | NNE | 8.5 | NNE | 0.0 | 626.7 | |||||||||
| 08:55 | 14.1 | 12.8 | 75.5 | 1014.4 | 3.9 | NE | 7.4 | NNE | 0.0 | 623.1 | |||||||||
| 09:00 | 14.2 | 13.1 | 73.6 | 1014.4 | 2.8 | NW | 6.4 | WSW | 0.0 | 651.9 | |||||||||
| 09:05 | 14.5 | 13.3 | 72.2 | 1014.2 | 1.2 | SW | 4.6 | WSW | 0.0 | 641.3 | |||||||||
| 09:10 | 15.2 | 13.4 | 69.4 | 1014.2 | 0.9 | W | 3.2 | W | 0.0 | 691.4 | |||||||||
| 09:15 | 15.9 | 13.6 | 66.6 | 1014.2 | 2.1 | NE | 4.2 | NNE | 0.0 | 675.5 | |||||||||
| 09:20 | 16.1 | 14.0 | 65.7 | 1014.2 | 2.3 | SSW | 4.9 | SSW | 0.0 | 731.7 | |||||||||
| 09:25 | 15.9 | 14.7 | 65.9 | 1014.2 | 1.5 | NE | 3.9 | E | 0.0 | 715.5 | |||||||||
| 09:30 | 16.3 | 15.5 | 66.0 | 1014.2 | 4.5 | N | 10.2 | N | 0.0 | 726.3 | |||||||||
| 09:35 | 16.3 | 16.4 | 65.3 | 1014.2 | 5.0 | NNE | 7.8 | NNE | 0.0 | 777.9 | |||||||||
| 09:40 | 16.6 | 17.3 | 66.1 | 1014.2 | 4.7 | NE | 8.5 | NNE | 0.0 | 727.8 | |||||||||
| 09:45 | 16.7 | 18.1 | 63.0 | 1014.3 | 3.1 | S | 7.1 | S | 0.0 | 433.8 | |||||||||
| 09:50 | 17.2 | 18.5 | 60.9 | 1014.3 | 6.8 | S | 14.8 | ESE | 0.0 | 883.0 | |||||||||
| 09:55 | 17.6 | 19.3 | 57.7 | 1014.3 | 5.4 | WSW | 12.4 | SW | 0.0 | 498.9 | |||||||||
| 10:00 | 18.0 | 19.6 | 56.2 | 1014.3 | 6.5 | SSW | 14.8 | SW | 0.0 | 753.7 | |||||||||
| 10:05 | 17.9 | 19.9 | 55.9 | 1014.3 | 6.8 | S | 12.4 | SSW | 0.0 | 900.0 | |||||||||
| 10:10 | 18.1 | 20.2 | 56.1 | 1014.3 | 10.5 | S | 18.0 | S | 0.0 | 846.0 | |||||||||
| 10:15 | 18.7 | 20.5 | 53.5 | 1014.1 | 4.5 | WSW | 7.4 | SW | 0.0 | 842.0 | |||||||||
| 10:20 | 19.3 | 20.8 | 52.6 | 1014.1 | 3.4 | WNW | 8.1 | SE | 0.0 | 914.0 | |||||||||
| 10:25 | 19.3 | 21.2 | 51.5 | 1013.8 | 4.5 | NNE | 9.2 | NE | 0.0 | 765.3 | |||||||||
| 10:30 | 19.1 | 21.3 | 52.3 | 1013.8 | 5.6 | SSW | 16.2 | S | 0.0 | 489.8 | |||||||||
| 10:35 | 18.5 | 20.9 | 53.0 | 1013.9 | 6.4 | SW | 12.7 | WSW | 0.0 | 257.9 | |||||||||
| 10:40 | 17.7 | 20.1 | 54.2 | 1013.9 | 9.4 | SSW | 15.2 | SSW | 0.0 | 294.5 | |||||||||
| 10:45 | 17.3 | 19.2 | 55.3 | 1013.9 | 6.8 | SW | 10.9 | S | 0.0 | 210.7 | |||||||||
| 10:50 | 17.3 | 18.6 | 55.0 | 1013.9 | 3.5 | WSW | 8.1 | W | 0.0 | 210.1 | |||||||||
| 10:55 | 17.4 | 18.3 | 56.6 | 1013.9 | 3.7 | WSW | 9.5 | NW | 0.0 | 511.0 | |||||||||
| 11:00 | 18.5 | 19.1 | 53.8 | 1013.9 | 3.7 | W | 7.4 | WNW | 0.0 | 966.0 | |||||||||
| 11:05 | 19.0 | 20.7 | 51.4 | 1013.8 | 2.2 | E | 6.0 | ESE | 0.0 | 995.0 | |||||||||
| 11:10 | 19.7 | 22.1 | 47.0 | 1013.8 | 2.4 | S | 7.4 | SE | 0.0 | 829.0 | |||||||||
| 11:15 | 19.9 | 23.2 | 45.4 | 1013.6 | 8.1 | SSW | 13.8 | S | 0.0 | 765.8 | |||||||||
| 11:20 | 19.5 | 23.7 | 43.0 | 1013.6 | 5.6 | SW | 12.0 | SW | 0.0 | 799.4 | |||||||||
| 11:25 | 19.6 | 24.2 | 45.7 | 1013.4 | 7.9 | SW | 20.1 | SSW | 0.0 | 784.0 | |||||||||
| 11:30 | 19.4 | 24.4 | 46.5 | 1013.4 | 8.2 | S | 12.4 | SE | 0.0 | 849.0 | |||||||||
| 11:35 | 19.0 | 24.6 | 49.3 | 1013.3 | 8.7 | SSW | 16.9 | SW | 0.0 | 627.8 | |||||||||
| 11:40 | 19.2 | 24.2 | 48.7 | 1013.3 | 11.9 | SW | 20.5 | SW | 0.0 | 515.0 | |||||||||
| 11:45 | 18.9 | 23.4 | 48.8 | 1013.3 | 10.5 | S | 17.3 | SSW | 0.0 | 603.0 | |||||||||
| 11:50 | 19.1 | 23.2 | 48.4 | 1013.3 | 6.9 | SSE | 15.2 | SW | 0.0 | 653.8 | |||||||||
| 11:55 | 19.2 | 23.7 | 47.2 | 1013.2 | 4.9 | SE | 13.1 | SSE | 0.0 | 729.5 | |||||||||
| 12:00 | 19.6 | 24.3 | 45.3 | 1013.2 | 9.8 | SSW | 19.4 | SSW | 0.0 | 853.0 | |||||||||
| 12:05 | 19.3 | 24.9 | 45.4 | 1013.0 | 7.7 | SSW | 16.2 | SSW | 0.0 | 753.0 | |||||||||
| 12:10 | 19.9 | 25.4 | 44.5 | 1013.0 | 6.9 | WSW | 12.0 | WSW | 0.0 | 738.1 | |||||||||
| 12:15 | 20.2 | 26.1 | 43.8 | 1013.0 | 6.0 | SW | 11.6 | SW | 0.0 | 885.0 | |||||||||
| 12:20 | 20.5 | 27.2 | 44.0 | 1013.0 | 6.3 | SSW | 16.9 | SW | 0.0 | 904.0 | |||||||||
| 12:25 | 20.4 | 28.1 | 46.3 | 1013.0 | 13.9 | SSW | 21.2 | SSW | 0.0 | 957.0 | |||||||||
| 12:30 | 20.0 | 28.3 | 46.0 | 1013.0 | 10.1 | SSW | 18.7 | SSW | 0.0 | 939.0 | |||||||||
| 12:35 | 20.3 | 28.7 | 45.1 | 1013.0 | 7.1 | W | 13.1 | WSW | 0.0 | 975.0 | |||||||||
| 12:40 | 20.6 | 29.3 | 45.9 | 1013.0 | 10.5 | WSW | 25.4 | WSW | 0.0 | 960.0 | |||||||||
| 12:45 | 21.1 | 29.2 | 44.6 | 1012.9 | 11.3 | SW | 18.4 | SSW | 0.0 | 938.0 | |||||||||
| 12:50 | 21.0 | 29.1 | 43.6 | 1012.9 | 10.8 | SW | 23.3 | SW | 0.0 | 937.0 | |||||||||
| 12:55 | 20.7 | 29.0 | 42.2 | 1012.8 | 11.7 | SSW | 19.1 | SSW | 0.0 | 920.0 | |||||||||
| 13:00 | 20.6 | 28.8 | 45.4 | 1012.8 | 4.9 | SW | 10.2 | SW | 0.0 | 892.0 | |||||||||
| 13:05 | 21.6 | 29.1 | 45.0 | 1012.7 | 5.4 | SSW | 12.7 | SSE | 0.0 | 873.0 | |||||||||
| 13:10 | 21.3 | 29.3 | 44.9 | 1012.7 | 11.0 | SSW | 21.2 | S | 0.0 | 261.0 | |||||||||
| 13:15 | 21.0 | 28.6 | 45.5 | 1012.5 | 12.2 | SSW | 24.0 | SW | 0.0 | 165.6 | |||||||||
| 13:20 | 20.6 | 27.1 | 45.2 | 1012.5 | 9.7 | SSW | 20.1 | SSW | 0.0 | 128.5 | |||||||||
| 13:25 | 21.4 | 25.9 | 42.7 | 1012.5 | 9.4 | S | 21.9 | SSW | 0.0 | 252.3 | |||||||||
| 13:30 | 20.3 | 24.9 | 51.3 | 1012.5 | 18.7 | SSW | 29.6 | SW | 0.0 | 738.7 | |||||||||
| 13:35 | 20.3 | 23.8 | 53.1 | 1012.4 | 17.4 | SSW | 26.5 | SSW | 0.0 | 807.0 | |||||||||
| 13:40 | 20.1 | 23.0 | 54.1 | 1012.4 | 17.2 | SSW | 25.1 | SSW | 0.0 | 784.3 | |||||||||
| 13:45 | 19.8 | 22.3 | 54.8 | 1012.3 | 17.4 | SSW | 26.8 | SW | 0.0 | 806.0 | |||||||||
| 13:50 | 19.9 | 21.8 | 56.5 | 1012.3 | 14.6 | SSW | 25.4 | SSW | 0.0 | 888.0 | |||||||||
| 13:55 | 20.1 | 21.8 | 54.6 | 1012.3 | 10.2 | SSE | 20.8 | SE | 0.0 | 560.6 | |||||||||
| 14:00 | 19.3 | 21.5 | 57.1 | 1012.3 | 8.4 | SSE | 15.2 | SSE | 0.0 | 683.7 | |||||||||
| 14:05 | 19.7 | 21.2 | 55.4 | 1012.1 | 11.9 | SSE | 24.0 | SSE | 0.0 | 392.9 | |||||||||
| 14:10 | 19.1 | 20.8 | 57.8 | 1012.1 | 8.6 | SE | 15.2 | ESE | 0.0 | 431.3 | |||||||||
| 14:15 | 20.0 | 20.5 | 55.9 | 1012.1 | 12.4 | SE | 19.4 | SE | 0.0 | 779.3 | |||||||||
| 14:20 | 20.0 | 20.7 | 54.5 | 1012.1 | 7.1 | SSE | 14.5 | SSE | 0.0 | 701.2 | |||||||||
| 14:25 | 20.2 | 20.8 | 54.7 | 1011.9 | 15.0 | S | 28.2 | S | 0.0 | 698.3 | |||||||||
| 14:30 | 20.1 | 20.9 | 54.9 | 1011.9 | 14.2 | S | 25.1 | SSW | 0.0 | 812.0 | |||||||||
| 14:35 | 20.3 | 21.2 | 54.4 | 1011.8 | 15.9 | S | 32.5 | SSW | 0.0 | 769.3 | |||||||||
| 14:40 | 20.0 | 21.3 | 54.3 | 1011.8 | 14.6 | SSW | 26.1 | SSW | 0.0 | 595.9 | |||||||||
| 14:45 | 19.6 | 21.0 | 55.0 | 1011.8 | 18.4 | SW | 29.3 | SW | 0.0 | 603.6 | |||||||||
| 14:50 | 19.6 | 20.7 | 55.0 | 1011.8 | 16.8 | SSW | 26.8 | SSW | 0.0 | 749.9 | |||||||||
| 14:55 | 19.9 | 20.7 | 53.9 | 1011.8 | 15.8 | SSW | 28.9 | SSW | 0.0 | 683.4 | |||||||||
| 15:00 | 19.5 | 20.7 | 54.8 | 1011.8 | 15.2 | S | 25.4 | SSW | 0.0 | 448.3 | |||||||||
| 15:05 | 19.2 | 20.5 | 55.6 | 1011.8 | 15.9 | SSW | 27.5 | SSW | 0.0 | 563.5 | |||||||||
| 15:10 | 19.2 | 20.2 | 55.9 | 1011.8 | 14.2 | SSW | 23.3 | SSW | 0.0 | 470.9 | |||||||||
| 15:15 | 19.4 | 20.2 | 55.8 | 1011.8 | 11.5 | SSW | 18.0 | S | 0.0 | 554.7 | |||||||||
| 15:20 | 19.5 | 20.3 | 55.3 | 1011.8 | 13.6 | S | 26.5 | S | 0.0 | 606.1 | |||||||||
| 15:25 | 19.4 | 20.4 | 55.8 | 1011.7 | 14.5 | SSW | 25.1 | SSW | 0.0 | 670.4 | |||||||||
| 15:30 | 19.5 | 20.4 | 56.1 | 1011.7 | 17.7 | SSW | 27.5 | SSW | 0.0 | 566.9 | |||||||||
| 15:35 | 19.3 | 20.2 | 56.7 | 1011.7 | 15.3 | SSW | 22.6 | SSW | 0.0 | 584.9 | |||||||||
| 15:40 | 19.3 | 20.1 | 56.1 | 1011.7 | 15.7 | SW | 25.4 | SSW | 0.0 | 591.2 | |||||||||
| 15:45 | 19.3 | 20.1 | 56.0 | 1011.6 | 17.9 | SSW | 27.5 | SSW | 0.0 | 566.6 | |||||||||
| 15:50 | 19.3 | 20.1 | 56.4 | 1011.6 | 16.8 | SSW | 24.0 | SSW | 0.0 | 596.4 | |||||||||
| 15:55 | 19.3 | 20.2 | 56.5 | 1011.7 | 17.7 | SSW | 27.2 | SSW | 0.0 | 576.0 | |||||||||
| 16:00 | 19.1 | 20.2 | 57.1 | 1011.7 | 19.2 | SSW | 27.9 | SW | 0.0 | 561.5 | |||||||||
| 16:05 | 19.2 | 20.2 | 57.6 | 1011.7 | 15.2 | S | 25.8 | S | 0.0 | 614.7 | |||||||||
| 16:10 | 19.6 | 20.5 | 57.2 | 1011.7 | 14.1 | S | 25.8 | S | 0.0 | 494.3 | |||||||||
| 16:15 | 19.2 | 20.6 | 58.1 | 1011.7 | 13.3 | S | 34.6 | SSW | 0.0 | 309.8 | |||||||||
| 16:20 | 19.4 | 20.4 | 57.1 | 1011.7 | 10.1 | SSE | 19.4 | SSE | 0.0 | 301.0 | |||||||||
| 16:25 | 19.0 | 20.2 | 57.5 | 1011.8 | 10.5 | SE | 19.8 | SE | 0.0 | 334.2 | |||||||||
| 16:30 | 18.9 | 20.0 | 58.8 | 1011.8 | 12.3 | SE | 20.5 | SE | 0.0 | 224.3 | |||||||||
| 16:35 | 18.3 | 19.6 | 60.3 | 1011.9 | 9.9 | SE | 18.7 | SE | 0.0 | 139.0 | |||||||||
| 16:40 | 18.0 | 19.1 | 62.9 | 1011.9 | 8.7 | SE | 16.2 | SE | 0.0 | 129.6 | |||||||||
| 16:45 | 18.0 | 18.8 | 62.4 | 1012.0 | 8.3 | SE | 18.4 | SE | 0.0 | 144.7 | |||||||||
| 16:50 | 17.8 | 18.5 | 63.1 | 1012.0 | 10.1 | SE | 19.8 | SE | 0.0 | 135.8 | |||||||||
| 16:55 | 17.8 | 18.3 | 64.4 | 1012.0 | 11.1 | SE | 18.4 | E | 0.0 | 141.7 | |||||||||
| 17:00 | 17.5 | 18.1 | 64.3 | 1012.0 | 9.8 | SE | 18.7 | SSE | 0.0 | 142.5 | |||||||||
| 17:05 | 17.3 | 17.8 | 64.9 | 1012.0 | 9.6 | SE | 18.4 | SSE | 0.0 | 135.7 | |||||||||
| 17:10 | 17.5 | 17.7 | 64.9 | 1012.0 | 9.6 | SE | 19.8 | SE | 0.0 | 134.4 | |||||||||
| 17:15 | 17.6 | 17.7 | 65.3 | 1012.0 | 8.8 | SE | 14.8 | ESE | 0.0 | 212.7 | |||||||||
| 17:20 | 17.7 | 17.8 | 64.7 | 1012.0 | 11.9 | ESE | 21.5 | ESE | 0.0 | 114.5 | |||||||||
| 17:25 | 17.5 | 17.8 | 66.5 | 1012.2 | 5.7 | ESE | 13.4 | ESE | 0.0 | 112.2 | |||||||||
| 17:30 | 17.2 | 17.5 | 67.4 | 1012.2 | 8.7 | E | 20.5 | E | 0.0 | 114.4 | |||||||||
| 17:35 | 17.0 | 17.1 | 67.2 | 1012.2 | 7.7 | ESE | 14.1 | E | 0.0 | 106.3 | |||||||||
| 17:40 | 17.1 | 17.0 | 64.4 | 1012.2 | 9.6 | ESE | 19.1 | SE | 0.0 | 95.9 | |||||||||
| 17:45 | 16.9 | 17.0 | 66.6 | 1012.4 | 10.0 | E | 15.9 | E | 0.0 | 89.5 | |||||||||
| 17:50 | 16.3 | 16.7 | 67.9 | 1012.4 | 8.9 | E | 16.6 | E | 0.0 | 82.3 | |||||||||
| 17:55 | 16.3 | 16.4 | 69.2 | 1012.5 | 4.6 | ESE | 8.5 | ESE | 0.0 | 77.9 | |||||||||
| 18:00 | 16.4 | 16.3 | 71.2 | 1012.5 | 7.4 | ESE | 12.4 | SE | 0.0 | 72.5 | |||||||||
| 18:05 | 16.4 | 16.2 | 71.1 | 1012.5 | 7.9 | SE | 14.1 | SSE | 0.0 | 68.8 | |||||||||
| 18:10 | 16.4 | 16.1 | 69.0 | 1012.5 | 8.5 | SE | 15.9 | SSE | 0.0 | 63.3 | |||||||||
| 18:15 | 16.3 | 16.1 | 68.8 | 1012.7 | 8.8 | SE | 16.2 | SE | 0.0 | 56.4 | |||||||||
| 18:20 | 16.2 | 16.1 | 68.4 | 1012.7 | 7.4 | SE | 13.1 | SE | 0.0 | 49.7 | |||||||||
| 18:25 | 16.1 | 16.1 | 68.9 | 1012.9 | 6.2 | SE | 11.3 | SE | 0.0 | 42.3 | |||||||||
| 18:30 | 16.0 | 16.0 | 71.4 | 1012.9 | 5.9 | SE | 10.9 | SE | 0.0 | 35.0 | |||||||||
| 18:35 | 15.8 | 15.7 | 72.1 | 1013.0 | 6.1 | ESE | 9.9 | ESE | 0.0 | 30.4 | |||||||||
| 18:40 | 15.6 | 15.4 | 73.9 | 1013.0 | 4.2 | ESE | 7.4 | ESE | 0.0 | 25.8 | |||||||||
| 18:45 | 15.2 | 15.0 | 75.7 | 1013.2 | 4.2 | SE | 6.7 | ESE | 0.0 | 19.7 | |||||||||
| 18:50 | 14.8 | 14.6 | 77.8 | 1013.2 | 3.1 | ESE | 4.6 | SE | 0.0 | 12.9 | |||||||||
| 18:55 | 14.4 | 14.3 | 79.5 | 1013.3 | 1.3 | ESE | 3.2 | SE | 0.0 | 7.3 | |||||||||
| 19:00 | 14.2 | 14.0 | 79.3 | 1013.3 | 1.8 | ESE | 3.5 | ESE | 0.0 | 2.6 | |||||||||
| 19:05 | 14.0 | 13.8 | 80.5 | 1013.4 | 1.8 | ESE | 2.8 | ESE | 0.0 | 1.4 | |||||||||
| 19:10 | 13.9 | 13.6 | 81.2 | 1013.4 | 0.4 | SE | 2.1 | SSE | 0.0 | 0.8 | |||||||||
| 19:15 | 14.0 | 13.5 | 80.5 | 1013.5 | 3.3 | S | 6.7 | SSW | 0.0 | 0.3 | |||||||||
| 19:20 | 14.6 | 13.7 | 76.4 | 1013.5 | 5.5 | SSW | 7.4 | SSW | 0.0 | 0.2 | |||||||||
| 19:25 | 14.7 | 14.0 | 75.6 | 1013.6 | 6.5 | SSW | 8.8 | SSW | 0.0 | 0.1 | |||||||||
| 19:30 | 14.5 | 14.2 | 78.1 | 1013.6 | 5.5 | SSW | 9.9 | SSW | 0.0 | 0.1 | |||||||||
| 19:35 | 14.4 | 14.2 | 79.0 | 1013.7 | 6.1 | S | 11.3 | S | 0.0 | 0.1 | |||||||||
| 19:40 | 14.3 | 14.2 | 80.2 | 1013.7 | 7.3 | S | 10.9 | S | 0.0 | 0.1 | |||||||||
| 19:45 | 14.2 | 14.2 | 80.8 | 1013.9 | 5.6 | S | 8.5 | SSW | 0.0 | 0.1 | |||||||||
| 19:50 | 14.1 | 14.1 | 81.4 | 1013.9 | 5.3 | S | 8.5 | S | 0.0 | 0.1 | |||||||||
| 19:55 | 14.0 | 14.0 | 82.1 | 1014.0 | 4.8 | S | 7.4 | S | 0.0 | 0.1 | |||||||||
| 20:00 | 13.9 | 13.9 | 82.4 | 1014.0 | 3.9 | S | 6.4 | SSW | 0.0 | 0.1 | |||||||||
| 20:05 | 13.8 | 13.8 | 82.9 | 1014.2 | 3.6 | SSW | 5.3 | S | 0.0 | 0.1 | |||||||||
| 20:10 | 13.6 | 13.6 | 83.0 | 1014.2 | 3.3 | S | 5.6 | S | 0.0 | 0.1 | |||||||||
| 20:15 | 13.4 | 13.2 | 84.0 | 1014.4 | 4.3 | S | 7.1 | S | 0.0 | 0.1 | |||||||||
| 20:20 | 13.0 | 12.8 | 85.0 | 1014.4 | 4.7 | S | 8.5 | S | 0.0 | 0.1 | |||||||||
| 20:25 | 12.3 | 12.3 | 86.9 | 1014.5 | 4.1 | S | 7.1 | S | 0.0 | 0.1 | |||||||||
| 20:30 | 11.9 | 11.8 | 89.4 | 1014.5 | 3.1 | SSW | 6.4 | S | 0.0 | 0.1 | |||||||||
| 20:35 | 11.8 | 11.5 | 90.4 | 1014.6 | 3.7 | ESE | 6.4 | E | 0.0 | 0.1 | |||||||||
| 20:40 | 11.7 | 11.4 | 90.5 | 1014.6 | 5.2 | E | 6.4 | E | 0.0 | 0.1 | |||||||||
| Máxima | 21.6 | 29.3 | 100.0 | 1015.0 | 19.2 | SSW | 34.6 | SSW | 0.0 | 995.0 | |||||||||
| Mínima | 5.3 | 5.2 | 42.2 | 1011.6 | |||||||||||||||
| Total | 0.0 | ||||||||||||||||||